Time;durP1;ratioP1;P1;durP2;ratioP2;P2;SDS_P1;SDS_P2;PMS_P1;PMS_P2;Temp;Humidity;BMP_temperature;BMP_pressure;BME280_temperature;BME280_humidity;BME280_pressure;Samples;Min_cycle;Max_cycle;Signal;HPM_P1;HPM_P2
2022/12/17 13:08:02;;;;;;;42.08;25.30;;;;;;;;;;5086162;28;20453;-72
2022/12/17 13:10:29;;;;;;;36.38;26.25;;;;;;;;;;5087195;28;20141;-72
2022/12/17 13:12:56;;;;;;;39.30;25.90;;;;;;;;;;5087016;28;20083;-72
2022/12/17 13:15:33;;;;;;;43.40;25.73;;;;;;;;;;5089120;28;20434;-72
2022/12/17 13:18:30;;;;;;;42.15;26.58;;;5.00;99.90;;;;;;5068987;28;20520;-71
2022/12/17 13:21:16;;;;;;;45.58;26.23;;;4.30;99.90;;;;;;5072358;28;20063;-72
2022/12/17 13:23:43;;;;;;;46.10;28.52;;;;;;;;;;5079234;28;20510;-72
2022/12/17 13:26:17;;;;;;;51.13;28.70;;;;;;;;;;5067618;28;20501;-72
2022/12/17 13:28:49;;;;;;;46.58;27.65;;;;;;;;;;5082348;28;20048;-72
2022/12/17 13:31:17;;;;;;;43.10;25.35;;;;;;;;;;5081584;28;20036;-72
2022/12/17 13:33:51;;;;;;;38.80;25.63;;;;;;;;;;5081021;28;20118;-72
2022/12/17 13:36:21;;;;;;;46.72;27.98;;;;;;;;;;5083979;28;20078;-72
2022/12/17 13:39:02;;;;;;;51.70;28.90;;;;;;;;;;5090693;28;20199;-72
2022/12/17 13:41:32;;;;;;;43.95;28.33;;;;;;;;;;5089103;28;20040;-72
2022/12/17 13:44:16;;;;;;;43.70;27.00;;;4.00;99.90;;;;;;5092386;28;20036;-72
2022/12/17 13:46:43;;;;;;;44.25;26.63;;;;;;;;;;5090024;28;20028;-70
2022/12/17 13:49:19;;;;;;;48.25;26.27;;;;;;;;;;5092322;28;20043;-71
2022/12/17 13:51:46;;;;;;;43.83;28.02;;;;;;;;;;5072780;28;20547;-72
2022/12/17 13:54:16;;;;;;;38.55;26.65;;;;;;;;;;5094187;28;20131;-72
2022/12/17 13:56:43;;;;;;;36.40;25.50;;;7.80;99.90;;;;;;5088498;28;20051;-72
2022/12/17 13:59:19;;;;;;;38.28;27.55;;;;;;;;;;5092804;28;20114;-70
2022/12/17 14:01:47;;;;;;;47.08;27.45;;;;;;;;;;5088200;28;20047;-69
2022/12/17 14:04:26;;;;;;;46.55;27.98;;;;;;;;;;5095105;28;20088;-69
2022/12/17 14:06:54;;;;;;;47.28;29.27;;;;;;;;;;5086059;28;20046;-69
2022/12/17 14:09:22;;;;;;;49.35;30.13;;;;;;;;;;5106206;28;20134;-71
2022/12/17 14:14:37;;;;;;;49.25;30.08;;;;;;;;;;5096844;27;20032;-69
2022/12/17 14:17:03;;;;;;;52.88;29.77;;;;;;;;;;5076158;28;20628;-69
2022/12/17 14:19:31;;;;;;;55.10;29.30;;;;;;;;;;5098557;28;20182;-70
2022/12/17 14:21:57;;;;;;;50.45;30.33;;;;;;;;;;5067816;28;20027;-70
2022/12/17 14:24:26;;;;;;;47.50;30.75;;;;;;;;;;5096718;28;20100;-69
2022/12/17 14:26:54;;;;;;;45.85;27.27;;;;;;;;;;5095841;28;20081;-69
2022/12/17 14:29:24;;;;;;;50.17;30.55;;;;;;;;;;5082071;28;20089;-69
2022/12/17 14:31:54;;;;;;;46.80;29.23;;;;;;;;;;5090572;28;20036;-69
2022/12/17 14:34:20;;;;;;;49.78;29.98;;;;;;;;;;5083115;28;20032;-70
2022/12/17 14:36:52;;;;;;;56.13;30.27;;;;;;;;;;5090654;28;20093;-70
2022/12/17 14:39:29;;;;;;;56.75;30.17;;;;;;;;;;5071314;28;20040;-70
2022/12/17 14:42:25;;;;;;;61.17;31.48;;;;;;;;;;5082990;28;20089;-69
2022/12/17 14:45:05;;;;;;;54.90;30.90;;;;;;;;;;5089995;28;20036;-69
2022/12/17 14:47:33;;;;;;;48.03;30.35;;;;;;;;;;5095324;28;20047;-69
2022/12/17 14:49:59;;;;;;;52.63;31.88;;;;;;;;;;5089015;28;20501;-70
2022/12/17 14:52:37;;;;;;;54.90;30.83;;;;;;;;;;5076806;28;20050;-70
2022/12/17 14:55:21;;;;;;;53.28;31.02;;;;;;;;;;5086877;28;20044;-70
2022/12/17 14:57:48;;;;;;;59.65;34.30;;;;;;;;;;5076607;28;20041;-69
2022/12/17 15:00:14;;;;;;;56.70;33.40;;;;;;;;;;5083378;28;20036;-69
2022/12/17 15:02:41;;;;;;;60.30;34.42;;;;;;;;;;5088160;28;20071;-70
2022/12/17 15:05:12;;;;;;;56.10;32.97;;;;;;;;;;5090753;28;20047;-70
2022/12/17 15:07:38;;;;;;;67.22;36.55;;;;;;;;;;5085139;28;20137;-69
2022/12/17 15:10:16;;;;;;;68.90;37.63;;;;;;;;;;5086971;28;20136;-70
2022/12/17 15:12:42;;;;;;;62.75;36.22;;;;;;;;;;5083903;28;20276;-70
2022/12/17 15:15:13;;;;;;;63.97;38.47;;;;;;;;;;5083569;28;20114;-70
2022/12/17 15:17:39;;;;;;;68.30;36.70;;;;;;;;;;5084110;28;20071;-71
2022/12/17 15:20:05;;;;;;;66.30;35.33;;;;;;;;;;5087417;28;20044;-71
2022/12/17 15:22:31;;;;;;;65.85;36.10;;;;;;;;;;5072826;28;20040;-71
2022/12/17 15:24:57;;;;;;;67.70;36.33;;;;;;;;;;5088642;28;20044;-71
2022/12/17 15:27:23;;;;;;;65.50;36.60;;;;;;;;;;5096291;28;20115;-70
2022/12/17 15:29:50;;;;;;;61.20;35.35;;;;;;;;;;5096130;28;20119;-69
2022/12/17 15:32:20;;;;;;;71.22;37.53;;;;;;;;;;5073392;28;20073;-71
2022/12/17 15:34:46;;;;;;;65.72;37.67;;;;;;;;;;5082246;28;20497;-71
2022/12/17 15:37:13;;;;;;;60.38;35.70;;;;;;;;;;5076537;28;20061;-71
2022/12/17 15:39:39;;;;;;;68.18;37.03;;;;;;;;;;5082134;28;20139;-71
2022/12/17 15:44:50;;;;;;;72.65;37.40;;;;;;;;;;5086488;28;20032;-69
2022/12/17 15:47:16;;;;;;;62.88;36.15;;;;;;;;;;5087665;28;20032;-71
2022/12/17 15:49:43;;;;;;;71.18;36.08;;;;;;;;;;5072142;28;20052;-69
2022/12/17 15:52:13;;;;;;;75.70;38.53;;;;;;;;;;5087299;28;20054;-69
2022/12/17 15:54:40;;;;;;;70.05;39.03;;;;;;;;;;5077979;28;20156;-69
2022/12/17 15:57:06;;;;;;;55.72;34.88;;;;;;;;;;5083734;28;20036;-69
2022/12/17 15:59:32;;;;;;;64.28;35.90;;;;;;;;;;5081101;28;20041;-69
2022/12/17 16:01:58;;;;;;;72.30;37.80;;;;;;;;;;5079636;28;20044;-69
2022/12/17 16:04:26;;;;;;;59.72;35.85;;;;;;;;;;5089801;28;20095;-71
2022/12/17 16:06:52;;;;;;;75.97;36.63;;;;;;;;;;5095321;28;20119;-72
2022/12/17 16:09:23;;;;;;;64.38;37.65;;;;;;;;;;5083901;28;20062;-69
2022/12/17 16:11:49;;;;;;;61.03;37.15;;;;;;;;;;5083275;28;20044;-71
2022/12/17 16:14:15;;;;;;;71.63;37.40;;;;;;;;;;5099784;28;20051;-70
2022/12/17 16:16:41;;;;;;;63.35;34.55;;;;;;;;;;5078623;28;20531;-72
2022/12/17 16:19:07;;;;;;;62.47;37.95;;;;;;;;;;5079559;28;20040;-72
2022/12/17 16:21:33;;;;;;;65.53;33.95;;;;;;;;;;5066136;28;20051;-71
2022/12/17 16:23:59;;;;;;;68.47;35.30;;;;;;;;;;5080200;28;20540;-70
2022/12/17 16:26:25;;;;;;;65.57;37.55;;;;;;;;;;5053700;28;20048;-70
2022/12/17 16:28:52;;;;;;;65.18;36.65;;;;;;;;;;5078983;28;20074;-70
2022/12/17 16:31:18;;;;;;;65.53;36.58;;;;;;;;;;5067188;28;20031;-70
2022/12/17 16:33:46;;;;;;;71.75;36.47;;;;;;;;;;5097811;27;20040;-70
2022/12/17 16:36:14;;;;;;;61.60;36.42;;;;;;;;;;5078238;28;20410;-70
2022/12/17 16:38:47;;;;;;;68.32;36.83;;;;;;;;;;5061350;28;20042;-71
2022/12/17 16:41:14;;;;;;;69.50;38.90;;;;;;;;;;5079776;28;20050;-71
2022/12/17 16:43:40;;;;;;;71.18;38.00;;;;;;;;;;5083917;28;20445;-70
2022/12/17 16:46:22;;;;;;;62.40;35.60;;;;;;;;;;5080663;28;20032;-70
2022/12/17 16:48:49;;;;;;;58.65;35.47;;;;;;;;;;5071500;28;20547;-70
2022/12/17 16:51:16;;;;;;;67.60;38.47;;;;;;;;;;5077907;28;20071;-70
2022/12/17 16:53:42;;;;;;;60.95;34.13;;;;;;;;;;5062296;28;20473;-70
2022/12/17 16:56:14;;;;;;;72.55;36.22;;;;;;;;;;5079322;28;21221;-70
2022/12/17 16:58:40;;;;;;;60.15;35.05;;;;;;;;;;5088054;28;20121;-71
2022/12/17 17:01:06;;;;;;;65.57;36.38;;;;;;;;;;5079019;28;20043;-70
2022/12/17 17:03:32;;;;;;;72.50;36.38;;;;;;;;;;5078987;28;20093;-69
2022/12/17 17:06:03;;;;;;;59.13;32.58;;;;;;;;;;5082751;28;20097;-70
2022/12/17 17:08:29;;;;;;;65.70;36.35;;;;;;;;;;5077317;28;20357;-71
2022/12/17 17:10:55;;;;;;;63.13;33.30;;;;;;;;;;5085122;28;20523;-70
2022/12/17 17:13:22;;;;;;;61.25;34.58;;;;;;;;;;5093057;28;20440;-70
2022/12/17 17:15:48;;;;;;;68.57;36.45;;;;;;;;;;5082800;28;20093;-70
2022/12/17 17:18:14;;;;;;;55.88;32.83;;;;;;;;;;5067529;28;20553;-70
2022/12/17 17:20:40;;;;;;;64.10;34.40;;;;;;;;;;5086623;28;20047;-70
2022/12/17 17:23:06;;;;;;;72.93;38.38;;;;;;;;;;5081566;28;20255;-70
2022/12/17 17:25:32;;;;;;;66.38;35.88;;;;;;;;;;5066876;28;20044;-70
2022/12/17 17:27:58;;;;;;;60.35;33.97;;;;;;;;;;5083124;28;20052;-70
2022/12/17 17:30:24;;;;;;;62.90;34.97;;;;;;;;;;5073558;28;20077;-70
2022/12/17 17:32:50;;;;;;;77.15;33.78;;;;;;;;;;5090549;28;20070;-70
2022/12/17 17:35:17;;;;;;;61.53;32.63;;;;;;;;;;5088771;28;20048;-70
2022/12/17 17:37:43;;;;;;;64.60;33.67;;;;;;;;;;5093388;28;20253;-70
2022/12/17 17:40:09;;;;;;;57.83;33.97;;;;;;;;;;5091378;28;20406;-71
2022/12/17 17:42:35;;;;;;;65.25;34.38;;;;;;;;;;5096229;28;20041;-70
2022/12/17 17:45:02;;;;;;;73.22;34.42;;;;;;;;;;5093738;28;20063;-70
2022/12/17 17:47:29;;;;;;;69.07;34.28;;;;;;;;;;5095423;28;20043;-70
2022/12/17 17:49:55;;;;;;;63.88;33.10;;;;;;;;;;5093468;28;20105;-70
2022/12/17 17:52:21;;;;;;;59.72;32.97;;;;;;;;;;5093948;28;20069;-70
2022/12/17 17:54:48;;;;;;;62.92;35.38;;;;;;;;;;5093943;28;20358;-70
2022/12/17 17:57:14;;;;;;;68.97;37.42;;;;;;;;;;5088291;28;20044;-70
2022/12/17 17:59:40;;;;;;;59.97;36.58;;;;;;;;;;5087072;28;20033;-70
2022/12/17 18:02:07;;;;;;;66.53;34.67;;;;;;;;;;5093783;28;20144;-70
2022/12/17 18:04:33;;;;;;;64.75;33.95;;;;;;;;;;5058964;28;20237;-69
2022/12/17 18:06:59;;;;;;;61.95;33.03;;;;;;;;;;5078807;28;20063;-70
2022/12/17 18:09:25;;;;;;;64.78;36.90;;;;;;;;;;5090982;28;20048;-70
2022/12/17 18:11:52;;;;;;;62.05;36.40;;;;;;;;;;5088474;28;20071;-72
2022/12/17 18:14:18;;;;;;;59.47;33.95;;;;;;;;;;5092107;28;20043;-70
2022/12/17 18:16:45;;;;;;;65.10;36.90;;;;;;;;;;5100497;28;20123;-70
2022/12/17 18:19:13;;;;;;;64.70;34.10;;;;;;;;;;5093246;28;20036;-70
2022/12/17 18:21:39;;;;;;;65.32;35.60;;;;;;;;;;5089048;28;20490;-70
2022/12/17 18:24:26;;;;;;;67.65;35.83;;;;;;;;;;5091757;28;20031;-69
2022/12/17 18:26:52;;;;;;;74.50;35.95;;;;;;;;;;5087456;28;20486;-70
2022/12/17 18:29:22;;;;;;;72.07;37.45;;;;;;;;;;5083923;28;20036;-70
2022/12/17 18:31:49;;;;;;;68.50;36.95;;;;;;;;;;5067592;28;20055;-70
2022/12/17 18:34:16;;;;;;;71.00;34.45;;;;;;;;;;5093403;28;20032;-71
2022/12/17 18:36:43;;;;;;;63.58;34.40;;;;;;;;;;5059177;28;20047;-70
2022/12/17 18:39:15;;;;;;;74.25;38.03;;;;;;;;;;5083415;28;20086;-72
2022/12/17 18:44:28;;;;;;;60.85;34.22;;;;;;;;;;5086437;28;20512;-70
2022/12/17 18:46:54;;;;;;;65.95;37.78;;;;;;;;;;5082948;28;20036;-69
2022/12/17 18:49:21;;;;;;;77.15;37.10;;;;;;;;;;5087531;28;20097;-70
2022/12/17 18:51:48;;;;;;;67.95;35.17;;;;;;;;;;5082855;28;20335;-70
2022/12/17 18:54:18;;;;;;;68.22;34.42;;;;;;;;;;5090039;28;20520;-69
2022/12/17 18:56:45;;;;;;;65.20;35.47;;;;;;;;;;5094947;28;20035;-69
2022/12/17 18:59:15;;;;;;;68.15;37.03;;;;;;;;;;5090675;28;20153;-69
2022/12/17 19:01:42;;;;;;;68.97;37.50;;;;;;;;;;5098382;28;20244;-68
2022/12/17 19:04:10;;;;;;;72.72;39.40;;;;;;;;;;5092657;28;20028;-70
2022/12/17 19:06:37;;;;;;;67.63;35.67;;;;;;;;;;5092137;27;20032;-70
2022/12/17 19:09:04;;;;;;;72.38;38.47;;;;;;;;;;5081450;28;20060;-70
2022/12/17 19:11:30;;;;;;;67.18;38.10;;;;;;;;;;5077645;28;20045;-69
2022/12/17 19:13:56;;;;;;;68.38;37.38;;;;;;;;;;5078505;28;20222;-69
2022/12/17 19:16:24;;;;;;;67.13;35.47;;;;;;;;;;5064307;28;20040;-69
2022/12/17 19:19:03;;;;;;;72.88;37.03;;;;;;;;;;5076817;28;20490;-70
2022/12/17 19:21:30;;;;;;;68.93;34.55;;;;;;;;;;5097890;27;20115;-69
2022/12/17 19:23:58;;;;;;;73.47;34.60;;;;;;;;;;5080619;28;20255;-69
2022/12/17 19:26:25;;;;;;;74.10;37.78;;;;;;;;;;5074817;28;20036;-68
2022/12/17 19:28:52;;;;;;;73.72;37.75;;;;;;;;;;5078100;28;20028;-70
2022/12/17 19:31:19;;;;;;;64.57;34.53;;;;;;;;;;5081673;28;20032;-70
2022/12/17 19:33:46;;;;;;;63.42;35.40;;;;;;;;;;5077688;28;20041;-69
2022/12/17 19:36:13;;;;;;;73.47;35.42;;;;;;;;;;5082547;28;20039;-69
2022/12/17 19:38:40;;;;;;;65.95;34.42;;;;;;;;;;5101679;27;20044;-70
2022/12/17 19:41:10;;;;;;;75.70;37.58;;;;;;;;;;5085164;28;20499;-71
2022/12/17 19:43:36;;;;;;;72.57;37.25;;;;;;;;;;5078592;28;20038;-70
2022/12/17 19:46:04;;;;;;;68.60;34.78;;;;;;;;;;5082885;28;20482;-70
2022/12/17 19:48:31;;;;;;;64.90;35.78;;;;;;;;;;5097588;27;20059;-70
2022/12/17 19:50:58;;;;;;;68.43;35.45;;;;;;;;;;5069246;28;20044;-69
2022/12/17 19:53:26;;;;;;;66.80;34.67;;;;;;;;;;5066058;28;20150;-72
2022/12/17 19:55:53;;;;;;;60.97;35.03;;;;;;;;;;5088124;28;20036;-70
2022/12/17 19:58:19;;;;;;;69.07;33.95;;;;;;;;;;5075536;28;20576;-70
2022/12/17 20:00:45;;;;;;;67.55;34.95;;;;;;;;;;5084651;28;20074;-70
2022/12/17 20:03:11;;;;;;;72.70;36.30;;;;;;;;;;5069601;28;20036;-70
2022/12/17 20:05:38;;;;;;;67.68;35.28;;;;;;;;;;5084984;28;20035;-70
2022/12/17 20:08:04;;;;;;;70.25;35.60;;;;;;;;;;5077464;28;20043;-70
2022/12/17 20:10:32;;;;;;;72.82;36.22;;;;;;;;;;5096950;27;20386;-69
2022/12/17 20:12:58;;;;;;;65.80;33.80;;;;;;;;;;5078112;28;20052;-70
2022/12/17 20:15:24;;;;;;;68.43;36.00;;;;;;;;;;5062017;28;20066;-69
2022/12/17 20:17:50;;;;;;;73.53;37.67;;;;;;;;;;5077798;28;20040;-69
2022/12/17 20:20:16;;;;;;;67.10;33.78;;;;;;;;;;5080353;28;20063;-70
2022/12/17 20:22:43;;;;;;;78.18;37.22;;;;;;;;;;5098004;27;20252;-70
2022/12/17 20:25:10;;;;;;;59.72;32.15;;;;;;;;;;5083711;28;20043;-71
2022/12/17 20:27:37;;;;;;;60.97;33.47;;;;;;;;;;5082334;28;20403;-70
2022/12/17 20:30:04;;;;;;;67.15;33.05;;;;;;;;;;5082451;28;20051;-70
2022/12/17 20:32:33;;;;;;;66.50;33.28;;;;;;;;;;5078193;28;20040;-70
2022/12/17 20:34:59;;;;;;;67.68;35.58;;;;;;;;;;5081581;28;20375;-70
2022/12/17 20:37:25;;;;;;;71.20;34.65;;;;;;;;;;5084376;28;20051;-69
2022/12/17 20:39:51;;;;;;;62.63;33.72;;;;;;;;;;5085003;28;20080;-69
2022/12/17 20:42:17;;;;;;;75.03;37.45;;;;;;;;;;5076820;28;20144;-72
2022/12/17 20:44:44;;;;;;;78.55;37.75;;;;;;;;;;5076854;28;20047;-69
2022/12/17 20:47:10;;;;;;;69.82;34.53;;;;;;;;;;5076433;28;20036;-69
2022/12/17 20:49:36;;;;;;;62.65;33.47;;;;;;;;;;5052915;28;20051;-69
2022/12/17 20:52:03;;;;;;;69.03;34.75;;;;;;;;;;5080053;28;20048;-69
2022/12/17 20:54:30;;;;;;;66.25;36.42;;;;;;;;;;5076866;28;20086;-70
2022/12/17 20:56:56;;;;;;;60.97;32.35;;;;;;;;;;5081082;28;20040;-70
2022/12/17 20:59:22;;;;;;;66.38;33.58;;;;;;;;;;5077951;28;20040;-71
2022/12/17 21:01:48;;;;;;;78.47;34.55;;;;;;;;;;5086466;28;20059;-70
2022/12/17 21:04:15;;;;;;;65.93;34.83;;;;;;;;;;5082230;28;20059;-70
2022/12/17 21:06:45;;;;;;;68.20;36.80;;;;;;;;;;5083981;28;20119;-70
2022/12/17 21:09:12;;;;;;;70.78;35.20;;;;;;;;;;5086395;28;20142;-69
2022/12/17 21:11:38;;;;;;;77.07;36.50;;;;;;;;;;5080789;28;20405;-70
2022/12/17 21:14:12;;;;;;;77.75;34.50;;;;;;;;;;5081380;28;20524;-70
2022/12/17 21:16:39;;;;;;;60.83;34.00;;;;;;;;;;5081576;28;20445;-70
2022/12/17 21:19:06;;;;;;;65.72;35.03;;;;;;;;;;5078839;28;20119;-70
2022/12/17 21:21:33;;;;;;;65.90;36.10;;;;;;;;;;5078524;28;20033;-70
2022/12/17 21:24:00;;;;;;;77.07;39.70;;;;;;;;;;5082133;28;20072;-70
2022/12/17 21:26:28;;;;;;;71.75;36.95;;;;;;;;;;5079215;28;20060;-70
2022/12/17 21:28:55;;;;;;;63.42;35.70;;;;;;;;;;5082744;28;20130;-69
2022/12/17 21:31:23;;;;;;;73.13;36.60;;;;;;;;;;5052856;28;20069;-70
2022/12/17 21:33:50;;;;;;;68.95;34.95;;;;;;;;;;5079296;28;20046;-70
2022/12/17 21:36:17;;;;;;;69.85;36.55;;;;;;;;;;5060779;28;20124;-70
2022/12/17 21:38:44;;;;;;;73.32;37.58;;;;;;;;;;5081123;28;20036;-69
2022/12/17 21:41:11;;;;;;;67.40;36.83;;;;;;;;;;5081120;28;20161;-70
2022/12/17 21:43:38;;;;;;;72.70;36.25;;;;;;;;;;5084313;28;20044;-70
2022/12/17 21:46:05;;;;;;;67.45;34.05;;;;;;;;;;5093467;28;20035;-70
2022/12/17 21:48:31;;;;;;;61.10;33.85;;;;;;;;;;5082007;28;20032;-70
2022/12/17 21:50:57;;;;;;;70.90;36.60;;;;;;;;;;5080410;28;20054;-69
2022/12/17 21:53:23;;;;;;;62.80;33.90;;;;;;;;;;5079026;28;20040;-70
2022/12/17 21:55:53;;;;;;;72.13;36.50;;;;;;;;;;5086912;28;20505;-70
2022/12/17 21:58:20;;;;;;;63.85;36.70;;;;;;;;;;5089699;28;20036;-70
2022/12/17 22:00:47;;;;;;;69.32;37.08;;;;;;;;;;5086136;28;20054;-70
2022/12/17 22:03:13;;;;;;;63.97;32.67;;;;;;;;;;5068699;28;20050;-70
2022/12/17 22:05:39;;;;;;;64.10;34.42;;;;;;;;;;5091933;28;20089;-70
2022/12/17 22:08:05;;;;;;;75.82;39.88;;;;;;;;;;5091916;28;20147;-70
2022/12/17 22:10:31;;;;;;;75.82;36.08;;;;;;;;;;5087781;28;20044;-70
2022/12/17 22:15:42;;;;;;;68.60;36.15;;;;;;;;;;5090507;28;20138;-69
2022/12/17 22:18:08;;;;;;;75.63;37.67;;;;;;;;;;5089778;28;20329;-70
2022/12/17 22:20:35;;;;;;;59.78;34.63;;;;;;;;;;5090560;28;20055;-70
2022/12/17 22:23:01;;;;;;;77.55;37.00;;;;;;;;;;5073933;28;20039;-70
2022/12/17 22:25:27;;;;;;;79.22;35.58;;;;;;;;;;5088492;28;20039;-70
2022/12/17 22:27:53;;;;;;;77.13;36.38;;;;;;;;;;5088598;28;20353;-70
2022/12/17 22:33:05;;;;;;;69.50;35.38;;;;;;;;;;5088480;28;20044;-69
2022/12/17 22:35:36;;;;;;;65.38;33.10;;;;;;;;;;5105701;27;22246;-70
2022/12/17 22:38:03;;;;;;;73.78;35.05;;;;;;;;;;5092112;28;20375;-70
2022/12/17 22:40:34;;;;;;;67.50;37.40;;;;;;;;;;5089186;28;20039;-70
2022/12/17 22:45:45;;;;;;;63.17;36.72;;;;;;;;;;5077771;28;20046;-70
2022/12/17 22:48:12;;;;;;;61.25;34.70;;;;;;;;;;5080245;28;20622;-70
2022/12/17 22:50:38;;;;;;;68.57;35.33;;;;;;;;;;5095684;28;20413;-70
2022/12/17 22:53:04;;;;;;;61.67;35.38;;;;;;;;;;5090037;28;20410;-70
2022/12/17 22:55:31;;;;;;;70.28;34.78;;;;;;;;;;5089276;28;20477;-70
2022/12/17 22:57:57;;;;;;;57.42;33.13;;;;;;;;;;5089134;28;20485;-69
2022/12/17 23:00:25;;;;;;;60.97;33.08;;;;;;;;;;5074998;28;20052;-70
2022/12/17 23:02:53;;;;;;;70.90;35.72;;;;;;;;;;5073609;28;20112;-70
2022/12/17 23:05:20;;;;;;;66.82;35.00;;;;;;;;;;5084806;28;20105;-70
2022/12/17 23:07:46;;;;;;;66.53;33.53;;;;;;;;;;5074896;28;20062;-71
2022/12/17 23:10:12;;;;;;;68.07;33.25;;;;;;;;;;5088090;28;20047;-70
2022/12/17 23:12:50;;;;;;;74.25;39.55;;;;;;;;;;5090002;28;20096;-70
2022/12/17 23:15:30;;;;;;;64.68;34.47;;;;;;;;;;5101960;27;20045;-68
2022/12/17 23:17:57;;;;;;;66.93;31.85;;;;;;;;;;5087376;28;20079;-70
2022/12/17 23:20:25;;;;;;;61.60;33.50;;;;;;;;;;5093770;28;20047;-70
2022/12/17 23:22:51;;;;;;;61.13;34.45;;;;;;;;;;5090397;28;20517;-70
2022/12/17 23:25:17;;;;;;;71.57;34.42;;;;;;;;;;5089190;28;20109;-70
2022/12/17 23:27:44;;;;;;;60.95;34.70;;;;;;;;;;5075931;28;20115;-70
2022/12/17 23:30:11;;;;;;;54.17;32.25;;;;;;;;;;5110097;27;20042;-70
2022/12/17 23:32:37;;;;;;;54.38;30.65;;;;;;;;;;5085630;28;20120;-70
2022/12/17 23:35:03;;;;;;;54.78;30.27;;;;;;;;;;5038764;28;20162;-69
2022/12/17 23:37:29;;;;;;;64.25;34.92;;;;;;;;;;5085389;28;20040;-70
2022/12/17 23:39:56;;;;;;;59.42;31.38;;;;;;;;;;5088698;28;20051;-70
2022/12/17 23:42:22;;;;;;;62.95;31.08;;;;;;;;;;5080897;28;20040;-70
2022/12/17 23:44:48;;;;;;;63.58;33.55;;;;;;;;;;5084222;28;20055;-72
2022/12/17 23:47:14;;;;;;;59.63;32.03;;;;;;;;;;5088982;28;20047;-70
2022/12/17 23:49:40;;;;;;;67.53;33.85;;;;;;;;;;5081474;28;20040;-70
2022/12/17 23:52:06;;;;;;;67.47;32.35;;;;;;;;;;5088390;28;20047;-70
2022/12/17 23:54:32;;;;;;;65.88;33.30;;;;;;;;;;5074815;28;20439;-70
2022/12/17 23:56:59;;;;;;;65.60;35.00;;;;;;;;;;5069950;28;20560;-71
2022/12/17 23:59:25;;;;;;;69.50;34.17;;;;;;;;;;5083375;28;20029;-70
